Главная страница
METAR-TAF:

METAR-TAF

Аэропорты :

Оденсе, Дания

широта: 55-29N, долгота: 010-20E, высота над уровнем моря: 17 м

Текущие метеонаблюдения

Эта сводка был подготовлена 12 часа и 36 минут назад, в 13:50 UTC
Ветер 16 Узел от западно-северо-западный
Температура 11°C
Влажность 43%
Давление 1026 hPa
Видимость 10 км и более
небольшая облачность на высоте 4900 фута
Отдельные облака на высоте 22000 фута

METAR: EKOD 231350Z 29016KT 9999 FEW049 SCT220 11/M01 Q1026

Время: 03:26 (02:26 UTC)

Прогноз

Эта сводка был подготовлена 17 часа и 32 минут назад, в 08:54 UTC
Прогноз действительный с 23-го 09 UTC до 23-го 15 UTC
Ветер 12 Узел от западный
Видимость 10 км и более
Отдельные облака на высоте 2000 фута

TAF: EKOD 230854Z 2309/2315 28012KT 9999 SCT020

Метеонаблюдения и прогнозы для более 4000 аэропортов (сводки METAR и TAF).

Имеющиеся станции представлены на карте желтыми и красными точками.

Чтобы увидеть название станции, наведите на нее мышь.

Затем щелкните, чтобы увидеть метеонаблюдения и метеопрогнозы.

Управление картой: чтобы увеличить масштаб, щелкните зеленые кнопки с черным крестиком; чтобы уменьшить масштаб, щелкните зеленую кнопку с тире; для просмотра соседних карт щелкайте зеленые стрелки.


METAR-TAF: